sensor_id;sensor_type;location;lat;lon;timestamp;pressure;altitude;pressure_sealevel;temperature;humidity
78613;BME280;67933;51.060;3.638;2023-05-07T00:00:16;101666.59;;;15.30;77.37
78613;BME280;67933;51.060;3.638;2023-05-07T00:02:44;101661.06;;;15.33;77.66
78613;BME280;67933;51.060;3.638;2023-05-07T00:05:10;101662.28;;;15.27;78.20
78613;BME280;67933;51.060;3.638;2023-05-07T00:07:35;101663.38;;;15.25;78.39
78613;BME280;67933;51.060;3.638;2023-05-07T00:10:01;101674.69;;;15.28;77.75
78613;BME280;67933;51.060;3.638;2023-05-07T00:12:27;101660.69;;;15.25;77.79
78613;BME280;67933;51.060;3.638;2023-05-07T00:14:52;101673.31;;;15.09;78.98
78613;BME280;67933;51.060;3.638;2023-05-07T00:17:17;101668.53;;;14.99;79.58
78613;BME280;67933;51.060;3.638;2023-05-07T00:19:43;101656.81;;;15.02;79.09
78613;BME280;67933;51.060;3.638;2023-05-07T00:22:08;101652.41;;;15.01;79.37
78613;BME280;67933;51.060;3.638;2023-05-07T00:24:33;101655.44;;;14.95;80.04
78613;BME280;67933;51.060;3.638;2023-05-07T00:26:59;101657.66;;;14.88;79.94
78613;BME280;67933;51.060;3.638;2023-05-07T00:29:25;101655.94;;;14.87;79.54
78613;BME280;67933;51.060;3.638;2023-05-07T00:31:50;101668.06;;;14.93;79.65
78613;BME280;67933;51.060;3.638;2023-05-07T00:34:16;101658.03;;;14.82;80.05
78613;BME280;67933;51.060;3.638;2023-05-07T00:36:42;101654.97;;;14.74;81.03
78613;BME280;67933;51.060;3.638;2023-05-07T00:39:07;101650.81;;;14.70;81.14
78613;BME280;67933;51.060;3.638;2023-05-07T00:41:32;101655.75;;;14.76;80.44
78613;BME280;67933;51.060;3.638;2023-05-07T00:43:58;101656.91;;;14.86;80.35
78613;BME280;67933;51.060;3.638;2023-05-07T00:46:23;101653.00;;;14.92;79.79
78613;BME280;67933;51.060;3.638;2023-05-07T00:48:53;101634.78;;;14.84;80.22
78613;BME280;67933;51.060;3.638;2023-05-07T00:51:19;101641.53;;;14.76;80.86
78613;BME280;67933;51.060;3.638;2023-05-07T00:53:45;101636.69;;;14.68;81.82
78613;BME280;67933;51.060;3.638;2023-05-07T00:56:11;101637.25;;;14.59;82.71
78613;BME280;67933;51.060;3.638;2023-05-07T00:58:37;101635.03;;;14.51;83.21
78613;BME280;67933;51.060;3.638;2023-05-07T01:01:03;101637.16;;;14.46;83.04
78613;BME280;67933;51.060;3.638;2023-05-07T01:03:28;101631.59;;;14.49;81.67
78613;BME280;67933;51.060;3.638;2023-05-07T01:05:55;101629.13;;;14.46;82.27
78613;BME280;67933;51.060;3.638;2023-05-07T01:08:23;101633.78;;;14.57;80.75
78613;BME280;67933;51.060;3.638;2023-05-07T01:10:52;101633.78;;;14.57;81.04
78613;BME280;67933;51.060;3.638;2023-05-07T01:13:19;101641.25;;;14.52;81.54
78613;BME280;67933;51.060;3.638;2023-05-07T01:15:45;101639.03;;;14.44;81.64
78613;BME280;67933;51.060;3.638;2023-05-07T01:18:10;101632.50;;;14.34;82.32
78613;BME280;67933;51.060;3.638;2023-05-07T01:20:36;101624.97;;;14.26;83.13
78613;BME280;67933;51.060;3.638;2023-05-07T01:23:03;101626.97;;;14.23;83.95
78613;BME280;67933;51.060;3.638;2023-05-07T01:25:28;101620.09;;;14.19;83.90
78613;BME280;67933;51.060;3.638;2023-05-07T01:27:54;101618.38;;;14.18;84.05
78613;BME280;67933;51.060;3.638;2023-05-07T01:30:21;101615.91;;;14.15;84.74
78613;BME280;67933;51.060;3.638;2023-05-07T01:35:17;101624.16;;;14.10;85.39
78613;BME280;67933;51.060;3.638;2023-05-07T01:37:44;101627.78;;;14.09;85.63
78613;BME280;67933;51.060;3.638;2023-05-07T01:40:10;101623.50;;;14.07;85.95
78613;BME280;67933;51.060;3.638;2023-05-07T01:42:36;101622.66;;;14.06;86.19
78613;BME280;67933;51.060;3.638;2023-05-07T01:45:02;101612.34;;;14.00;85.84
78613;BME280;67933;51.060;3.638;2023-05-07T01:47:29;101632.63;;;14.03;86.01
78613;BME280;67933;51.060;3.638;2023-05-07T01:49:55;101622.66;;;14.06;86.24
78613;BME280;67933;51.060;3.638;2023-05-07T01:52:20;101624.53;;;14.04;86.32
78613;BME280;67933;51.060;3.638;2023-05-07T01:54:46;101623.19;;;13.97;86.45
78613;BME280;67933;51.060;3.638;2023-05-07T01:57:11;101612.88;;;13.91;87.12
78613;BME280;67933;51.060;3.638;2023-05-07T01:59:36;101622.00;;;13.87;87.37
78613;BME280;67933;51.060;3.638;2023-05-07T02:02:02;101617.91;;;13.81;87.53
78613;BME280;67933;51.060;3.638;2023-05-07T02:04:27;101627.03;;;13.77;87.02
78613;BME280;67933;51.060;3.638;2023-05-07T02:06:53;101634.34;;;13.74;87.27
78613;BME280;67933;51.060;3.638;2023-05-07T02:09:18;101628.22;;;13.72;87.79
78613;BME280;67933;51.060;3.638;2023-05-07T02:11:44;101629.09;;;13.72;87.37
78613;BME280;67933;51.060;3.638;2023-05-07T02:14:10;101629.78;;;13.76;88.82
78613;BME280;67933;51.060;3.638;2023-05-07T02:16:35;101614.91;;;13.72;89.37
78613;BME280;67933;51.060;3.638;2023-05-07T02:19:01;101614.16;;;13.70;88.76
78613;BME280;67933;51.060;3.638;2023-05-07T02:21:26;101616.22;;;13.65;88.58
78613;BME280;67933;51.060;3.638;2023-05-07T02:23:51;101625.34;;;13.61;89.06
78613;BME280;67933;51.060;3.638;2023-05-07T02:26:18;101619.31;;;13.57;89.01
78613;BME280;67933;51.060;3.638;2023-05-07T02:28:43;101629.41;;;13.52;88.80
78613;BME280;67933;51.060;3.638;2023-05-07T02:31:09;101629.84;;;13.44;88.96
78613;BME280;67933;51.060;3.638;2023-05-07T02:33:34;101629.13;;;13.41;89.07
78613;BME280;67933;51.060;3.638;2023-05-07T02:36:10;101639.28;;;13.34;89.22
78613;BME280;67933;51.060;3.638;2023-05-07T02:38:36;101648.56;;;13.27;89.16
78613;BME280;67933;51.060;3.638;2023-05-07T02:41:01;101653.41;;;13.21;90.09
78613;BME280;67933;51.060;3.638;2023-05-07T02:43:27;101651.81;;;13.17;90.42
78613;BME280;67933;51.060;3.638;2023-05-07T02:48:27;101648.16;;;13.19;90.85
78613;BME280;67933;51.060;3.638;2023-05-07T02:50:53;101643.75;;;13.18;90.32
78613;BME280;67933;51.060;3.638;2023-05-07T02:53:18;101648.16;;;13.19;90.95
78613;BME280;67933;51.060;3.638;2023-05-07T02:55:44;101645.47;;;13.19;90.85
78613;BME280;67933;51.060;3.638;2023-05-07T02:58:09;101648.06;;;13.21;90.42
78613;BME280;67933;51.060;3.638;2023-05-07T03:00:34;101650.47;;;13.25;90.44
78613;BME280;67933;51.060;3.638;2023-05-07T03:03:00;101646.84;;;13.26;90.67
78613;BME280;67933;51.060;3.638;2023-05-07T03:05:25;101650.31;;;13.28;90.60
78613;BME280;67933;51.060;3.638;2023-05-07T03:07:51;101653.56;;;13.33;89.93
78613;BME280;67933;51.060;3.638;2023-05-07T03:10:16;101652.53;;;13.36;90.05
78613;BME280;67933;51.060;3.638;2023-05-07T03:12:42;101650.66;;;13.38;89.92
78613;BME280;67933;51.060;3.638;2023-05-07T03:15:08;101646.00;;;13.41;90.67
78613;BME280;67933;51.060;3.638;2023-05-07T03:17:33;101647.47;;;13.47;90.84
78613;BME280;67933;51.060;3.638;2023-05-07T03:19:59;101650.66;;;13.54;90.30
78613;BME280;67933;51.060;3.638;2023-05-07T03:22:24;101648.72;;;13.56;90.56
78613;BME280;67933;51.060;3.638;2023-05-07T03:24:50;101638.75;;;13.59;90.10
78613;BME280;67933;51.060;3.638;2023-05-07T03:27:15;101650.94;;;13.63;89.96
78613;BME280;67933;51.060;3.638;2023-05-07T03:29:40;101642.00;;;13.64;90.08
78613;BME280;67933;51.060;3.638;2023-05-07T03:32:06;101631.19;;;13.67;89.89
78613;BME280;67933;51.060;3.638;2023-05-07T03:34:31;101639.97;;;13.69;89.63
78613;BME280;67933;51.060;3.638;2023-05-07T03:36:57;101640.72;;;13.71;89.31
78613;BME280;67933;51.060;3.638;2023-05-07T03:39:22;101637.00;;;13.74;90.02
78613;BME280;67933;51.060;3.638;2023-05-07T03:41:48;101640.63;;;13.73;89.49
78613;BME280;67933;51.060;3.638;2023-05-07T03:44:13;101637.00;;;13.74;89.51
78613;BME280;67933;51.060;3.638;2023-05-07T03:46:38;101638.72;;;13.75;89.61
78613;BME280;67933;51.060;3.638;2023-05-07T03:49:04;101649.41;;;13.75;89.56
78613;BME280;67933;51.060;3.638;2023-05-07T03:51:29;101643.13;;;13.76;89.51
78613;BME280;67933;51.060;3.638;2023-05-07T03:53:55;101646.44;;;13.79;89.30
78613;BME280;67933;51.060;3.638;2023-05-07T03:56:22;101647.22;;;13.81;89.53
78613;BME280;67933;51.060;3.638;2023-05-07T03:58:48;101643.72;;;13.81;89.62
78613;BME280;67933;51.060;3.638;2023-05-07T04:01:13;101651.69;;;13.81;89.66
78613;BME280;67933;51.060;3.638;2023-05-07T04:03:39;101647.16;;;13.83;88.87
78613;BME280;67933;51.060;3.638;2023-05-07T04:06:04;101640.09;;;13.82;89.37
78613;BME280;67933;51.060;3.638;2023-05-07T04:08:30;101654.41;;;13.95;89.23
78613;BME280;67933;51.060;3.638;2023-05-07T04:10:58;101643.88;;;13.94;89.27
78613;BME280;67933;51.060;3.638;2023-05-07T04:13:27;101653.84;;;13.90;88.74
78613;BME280;67933;51.060;3.638;2023-05-07T04:15:54;101648.00;;;13.83;89.21
78613;BME280;67933;51.060;3.638;2023-05-07T04:18:19;101650.75;;;13.82;89.89
78613;BME280;67933;51.060;3.638;2023-05-07T04:20:45;101658.19;;;13.77;90.27
78613;BME280;67933;51.060;3.638;2023-05-07T04:23:10;101654.03;;;13.71;90.01
78613;BME280;67933;51.060;3.638;2023-05-07T04:25:36;101659.56;;;13.68;90.12
78613;BME280;67933;51.060;3.638;2023-05-07T04:28:01;101656.97;;;13.67;91.12
78613;BME280;67933;51.060;3.638;2023-05-07T04:30:27;101658.63;;;13.69;90.80
78613;BME280;67933;51.060;3.638;2023-05-07T04:32:52;101659.38;;;13.71;91.43
78613;BME280;67933;51.060;3.638;2023-05-07T04:35:18;101660.22;;;13.72;91.37
78613;BME280;67933;51.060;3.638;2023-05-07T04:37:44;101664.53;;;13.74;91.90
78613;BME280;67933;51.060;3.638;2023-05-07T04:40:09;101658.75;;;13.82;91.32
78613;BME280;67933;51.060;3.638;2023-05-07T04:42:35;101671.19;;;13.97;90.53
78613;BME280;67933;51.060;3.638;2023-05-07T04:45:01;101680.06;;;13.98;90.35
78613;BME280;67933;51.060;3.638;2023-05-07T04:47:27;101669.31;;;13.99;90.50
78613;BME280;67933;51.060;3.638;2023-05-07T04:49:52;101671.03;;;14.00;89.64
78613;BME280;67933;51.060;3.638;2023-05-07T04:52:18;101674.66;;;13.99;90.08
78613;BME280;67933;51.060;3.638;2023-05-07T04:54:43;101672.94;;;13.98;89.13
78613;BME280;67933;51.060;3.638;2023-05-07T04:57:09;101663.28;;;13.96;88.85
78613;BME280;67933;51.060;3.638;2023-05-07T04:59:34;101669.69;;;13.93;89.07
78613;BME280;67933;51.060;3.638;2023-05-07T05:01:59;101678.97;;;13.86;90.02
78613;BME280;67933;51.060;3.638;2023-05-07T05:04:25;101676.84;;;13.77;90.99
78613;BME280;67933;51.060;3.638;2023-05-07T05:06:50;101678.81;;;13.73;91.31
78613;BME280;67933;51.060;3.638;2023-05-07T05:09:16;101693.00;;;13.74;91.13
78613;BME280;67933;51.060;3.638;2023-05-07T05:11:43;101684.84;;;13.77;91.31
78613;BME280;67933;51.060;3.638;2023-05-07T05:14:08;101691.91;;;13.78;90.40
78613;BME280;67933;51.060;3.638;2023-05-07T05:16:33;101695.31;;;13.80;90.72
78613;BME280;67933;51.060;3.638;2023-05-07T05:18:59;101693.44;;;13.82;90.89
78613;BME280;67933;51.060;3.638;2023-05-07T05:21:24;101697.81;;;13.83;91.47
78613;BME280;67933;51.060;3.638;2023-05-07T05:23:50;101694.78;;;13.89;90.65
78613;BME280;67933;51.060;3.638;2023-05-07T05:26:15;101697.88;;;13.97;90.02
78613;BME280;67933;51.060;3.638;2023-05-07T05:28:41;101710.13;;;14.01;90.18
78613;BME280;67933;51.060;3.638;2023-05-07T05:31:06;101713.72;;;14.00;89.81
78613;BME280;67933;51.060;3.638;2023-05-07T05:33:32;101713.72;;;14.00;90.29
78613;BME280;67933;51.060;3.638;2023-05-07T05:35:57;101706.47;;;14.02;90.16
78613;BME280;67933;51.060;3.638;2023-05-07T05:38:22;101713.94;;;14.11;90.25
78613;BME280;67933;51.060;3.638;2023-05-07T05:40:48;101719.97;;;14.15;90.49
78613;BME280;67933;51.060;3.638;2023-05-07T05:43:14;101721.38;;;14.06;91.08
78613;BME280;67933;51.060;3.638;2023-05-07T05:45:40;101716.97;;;14.05;90.39
78613;BME280;67933;51.060;3.638;2023-05-07T05:48:05;101721.44;;;14.05;89.97
78613;BME280;67933;51.060;3.638;2023-05-07T05:50:31;101724.25;;;14.17;90.54
78613;BME280;67933;51.060;3.638;2023-05-07T05:52:57;101723.31;;;14.18;90.51
78613;BME280;67933;51.060;3.638;2023-05-07T05:55:23;101728.09;;;14.27;90.88
78613;BME280;67933;51.060;3.638;2023-05-07T05:57:49;101727.75;;;14.34;89.09
78613;BME280;67933;51.060;3.638;2023-05-07T06:00:15;101730.19;;;14.38;88.93
78613;BME280;67933;51.060;3.638;2023-05-07T06:02:41;101730.53;;;14.32;89.07
78613;BME280;67933;51.060;3.638;2023-05-07T06:05:08;101737.31;;;14.38;88.70
78613;BME280;67933;51.060;3.638;2023-05-07T06:07:33;101741.88;;;14.36;89.36
78613;BME280;67933;51.060;3.638;2023-05-07T06:10:00;101733.94;;;14.34;88.53
78613;BME280;67933;51.060;3.638;2023-05-07T06:12:25;101738.41;;;14.34;89.23
78613;BME280;67933;51.060;3.638;2023-05-07T06:14:50;101738.41;;;14.34;89.56
78613;BME280;67933;51.060;3.638;2023-05-07T06:17:16;101748.94;;;14.37;89.94
78613;BME280;67933;51.060;3.638;2023-05-07T06:19:41;101746.53;;;14.32;90.18
78613;BME280;67933;51.060;3.638;2023-05-07T06:22:07;101744.69;;;14.33;90.78
78613;BME280;67933;51.060;3.638;2023-05-07T06:24:32;101743.09;;;14.30;91.30
78613;BME280;67933;51.060;3.638;2023-05-07T06:26:57;101752.41;;;14.23;93.06
78613;BME280;67933;51.060;3.638;2023-05-07T06:29:24;101752.06;;;14.13;93.85
78613;BME280;67933;51.060;3.638;2023-05-07T06:31:54;101746.91;;;14.10;95.23
78613;BME280;67933;51.060;3.638;2023-05-07T06:34:20;101754.75;;;14.13;95.99
78613;BME280;67933;51.060;3.638;2023-05-07T06:36:45;101754.81;;;14.12;95.72
78613;BME280;67933;51.060;3.638;2023-05-07T06:39:10;101753.81;;;14.14;96.04
78613;BME280;67933;51.060;3.638;2023-05-07T06:41:36;101754.47;;;14.18;95.99
78613;BME280;67933;51.060;3.638;2023-05-07T06:44:02;101759.72;;;14.19;95.84
78613;BME280;67933;51.060;3.638;2023-05-07T06:46:28;101763.75;;;14.26;96.27
78613;BME280;67933;51.060;3.638;2023-05-07T06:48:54;101763.00;;;14.24;96.30
78613;BME280;67933;51.060;3.638;2023-05-07T06:51:19;101767.19;;;14.29;96.50
78613;BME280;67933;51.060;3.638;2023-05-07T06:53:45;101761.84;;;14.29;96.26
78613;BME280;67933;51.060;3.638;2023-05-07T06:56:10;101765.88;;;14.36;96.03
78613;BME280;67933;51.060;3.638;2023-05-07T06:58:37;101755.66;;;14.44;96.14
78613;BME280;67933;51.060;3.638;2023-05-07T07:01:02;101761.69;;;14.47;95.93
78613;BME280;67933;51.060;3.638;2023-05-07T07:03:28;101758.91;;;14.49;96.32
78613;BME280;67933;51.060;3.638;2023-05-07T07:05:54;101758.03;;;14.48;96.14
78613;BME280;67933;51.060;3.638;2023-05-07T07:08:20;101767.31;;;14.57;96.35
78613;BME280;67933;51.060;3.638;2023-05-07T07:10:46;101760.25;;;14.56;95.75
78613;BME280;67933;51.060;3.638;2023-05-07T07:13:12;101769.31;;;14.53;95.86
78613;BME280;67933;51.060;3.638;2023-05-07T07:15:38;101772.66;;;14.57;96.17
78613;BME280;67933;51.060;3.638;2023-05-07T07:18:04;101767.91;;;14.62;96.02
78613;BME280;67933;51.060;3.638;2023-05-07T07:20:29;101766.97;;;14.63;95.58
78613;BME280;67933;51.060;3.638;2023-05-07T07:22:54;101761.63;;;14.63;95.51
78613;BME280;67933;51.060;3.638;2023-05-07T07:25:20;101757.63;;;14.70;95.63
78613;BME280;67933;51.060;3.638;2023-05-07T07:27:45;101763.72;;;14.72;95.79
78613;BME280;67933;51.060;3.638;2023-05-07T07:30:11;101765.28;;;14.76;95.71
78613;BME280;67933;51.060;3.638;2023-05-07T07:32:37;101769.19;;;14.71;95.27
78613;BME280;67933;51.060;3.638;2023-05-07T07:35:02;101765.53;;;14.72;95.82
78613;BME280;67933;51.060;3.638;2023-05-07T07:37:28;101762.97;;;14.70;95.93
78613;BME280;67933;51.060;3.638;2023-05-07T07:39:53;101763.84;;;14.71;96.46
78613;BME280;67933;51.060;3.638;2023-05-07T07:42:19;101763.47;;;14.77;96.34
78613;BME280;67933;51.060;3.638;2023-05-07T07:44:44;101769.84;;;14.74;96.34
78613;BME280;67933;51.060;3.638;2023-05-07T07:47:10;101769.47;;;14.80;95.96
78613;BME280;67933;51.060;3.638;2023-05-07T07:49:35;101765.19;;;14.78;95.99
78613;BME280;67933;51.060;3.638;2023-05-07T07:52:01;101774.72;;;14.82;96.25
78613;BME280;67933;51.060;3.638;2023-05-07T07:54:26;101782.94;;;14.79;96.11
78613;BME280;67933;51.060;3.638;2023-05-07T07:56:52;101778.44;;;14.79;96.37
78613;BME280;67933;51.060;3.638;2023-05-07T07:59:17;101774.06;;;14.78;96.37
78613;BME280;67933;51.060;3.638;2023-05-07T08:01:45;101781.88;;;14.81;96.29
78613;BME280;67933;51.060;3.638;2023-05-07T08:04:10;101782.94;;;14.79;96.17
78613;BME280;67933;51.060;3.638;2023-05-07T08:06:36;101786.19;;;14.84;96.61
78613;BME280;67933;51.060;3.638;2023-05-07T08:09:01;101790.50;;;14.86;96.68
78613;BME280;67933;51.060;3.638;2023-05-07T08:11:27;101791.44;;;14.85;96.23
78613;BME280;67933;51.060;3.638;2023-05-07T08:13:54;101790.19;;;14.91;96.70
78613;BME280;67933;51.060;3.638;2023-05-07T08:16:19;101794.50;;;14.93;96.42
78613;BME280;67933;51.060;3.638;2023-05-07T08:18:45;101795.94;;;14.99;96.37
78613;BME280;67933;51.060;3.638;2023-05-07T08:21:10;101794.50;;;14.93;96.23
78613;BME280;67933;51.060;3.638;2023-05-07T08:23:36;101794.50;;;14.93;95.91
78613;BME280;67933;51.060;3.638;2023-05-07T08:26:01;101802.63;;;14.92;95.67
78613;BME280;67933;51.060;3.638;2023-05-07T08:28:28;101806.31;;;14.89;95.44
78613;BME280;67933;51.060;3.638;2023-05-07T08:30:55;101802.41;;;14.95;96.01
78613;BME280;67933;51.060;3.638;2023-05-07T08:33:21;101808.72;;;14.94;95.29
78613;BME280;67933;51.060;3.638;2023-05-07T08:35:47;101811.28;;;14.95;95.04
78613;BME280;67933;51.060;3.638;2023-05-07T08:38:12;101807.50;;;14.99;95.07
78613;BME280;67933;51.060;3.638;2023-05-07T08:40:38;101811.03;;;15.14;95.34
78613;BME280;67933;51.060;3.638;2023-05-07T08:43:07;101809.78;;;15.20;94.84
78613;BME280;67933;51.060;3.638;2023-05-07T08:45:34;101812.84;;;15.28;94.82
78613;BME280;67933;51.060;3.638;2023-05-07T08:48:02;101805.44;;;15.33;94.77
78613;BME280;67933;51.060;3.638;2023-05-07T08:50:28;101814.41;;;15.32;94.07
78613;BME280;67933;51.060;3.638;2023-05-07T08:52:54;101820.88;;;15.28;93.98
78613;BME280;67933;51.060;3.638;2023-05-07T08:55:22;101814.41;;;15.32;94.08
78613;BME280;67933;51.060;3.638;2023-05-07T08:57:48;101812.47;;;15.34;93.77
78613;BME280;67933;51.060;3.638;2023-05-07T09:00:13;101814.50;;;15.45;93.95
78613;BME280;67933;51.060;3.638;2023-05-07T09:02:39;101819.94;;;15.57;94.01
78613;BME280;67933;51.060;3.638;2023-05-07T09:05:05;101825.31;;;15.71;94.05
78613;BME280;67933;51.060;3.638;2023-05-07T09:07:31;101824.16;;;15.75;93.54
78613;BME280;67933;51.060;3.638;2023-05-07T09:09:56;101826.28;;;15.70;92.75
78613;BME280;67933;51.060;3.638;2023-05-07T09:12:24;101825.31;;;15.71;93.16
78613;BME280;67933;51.060;3.638;2023-05-07T09:14:50;101827.00;;;15.72;92.83
78613;BME280;67933;51.060;3.638;2023-05-07T09:17:16;101828.00;;;15.71;92.33
78613;BME280;67933;51.060;3.638;2023-05-07T09:19:43;101828.81;;;15.72;93.11
78613;BME280;67933;51.060;3.638;2023-05-07T09:22:09;101826.66;;;15.78;93.10
78613;BME280;67933;51.060;3.638;2023-05-07T09:24:35;101827.00;;;15.87;92.30
78613;BME280;67933;51.060;3.638;2023-05-07T09:27:05;101828.13;;;15.97;92.22
78613;BME280;67933;51.060;3.638;2023-05-07T09:29:31;101830.97;;;16.08;92.54
78613;BME280;67933;51.060;3.638;2023-05-07T09:32:06;101838.06;;;16.09;91.59
78613;BME280;67933;51.060;3.638;2023-05-07T09:34:32;101841.69;;;16.08;90.58
78613;BME280;67933;51.060;3.638;2023-05-07T09:37:02;101834.19;;;16.13;90.66
78613;BME280;67933;51.060;3.638;2023-05-07T09:39:42;101841.09;;;16.17;91.66
78613;BME280;67933;51.060;3.638;2023-05-07T09:42:08;101838.78;;;16.25;90.24
78613;BME280;67933;51.060;3.638;2023-05-07T09:44:34;101841.50;;;16.38;89.61
78613;BME280;67933;51.060;3.638;2023-05-07T09:47:00;101845.66;;;16.42;89.21
78613;BME280;67933;51.060;3.638;2023-05-07T09:49:29;101843.56;;;16.47;88.63
78613;BME280;67933;51.060;3.638;2023-05-07T09:51:55;101846.16;;;16.48;88.87
78613;BME280;67933;51.060;3.638;2023-05-07T09:54:22;101847.47;;;16.55;89.57
78613;BME280;67933;51.060;3.638;2023-05-07T09:56:52;101850.09;;;16.70;86.79
78613;BME280;67933;51.060;3.638;2023-05-07T09:59:18;101847.00;;;16.76;87.32
78613;BME280;67933;51.060;3.638;2023-05-07T10:01:44;101852.72;;;16.84;87.42
78613;BME280;67933;51.060;3.638;2023-05-07T10:04:10;101847.25;;;16.98;87.52
78613;BME280;67933;51.060;3.638;2023-05-07T10:06:36;101851.03;;;17.08;86.27
78613;BME280;67933;51.060;3.638;2023-05-07T10:09:05;101842.78;;;17.24;87.70
78613;BME280;67933;51.060;3.638;2023-05-07T10:11:35;101849.34;;;17.33;85.98
78613;BME280;67933;51.060;3.638;2023-05-07T10:14:02;101853.84;;;17.45;85.27
78613;BME280;67933;51.060;3.638;2023-05-07T10:16:31;101860.91;;;17.46;83.80
78613;BME280;67933;51.060;3.638;2023-05-07T10:18:58;101850.19;;;17.33;85.36
78613;BME280;67933;51.060;3.638;2023-05-07T10:21:24;101855.22;;;17.38;84.97
78613;BME280;67933;51.060;3.638;2023-05-07T10:23:55;101861.34;;;17.52;84.89
78613;BME280;67933;51.060;3.638;2023-05-07T10:26:23;101859.28;;;17.43;84.07
78613;BME280;67933;51.060;3.638;2023-05-07T10:28:54;101866.28;;;17.46;83.26
78613;BME280;67933;51.060;3.638;2023-05-07T10:34:15;101861.38;;;17.65;81.96
78613;BME280;67933;51.060;3.638;2023-05-07T10:36:42;101865.66;;;17.80;81.38
78613;BME280;67933;51.060;3.638;2023-05-07T10:39:08;101870.03;;;17.81;80.85
78613;BME280;67933;51.060;3.638;2023-05-07T10:41:33;101868.84;;;17.85;79.91
78613;BME280;67933;51.060;3.638;2023-05-07T10:43:59;101875.03;;;18.11;80.95
78613;BME280;67933;51.060;3.638;2023-05-07T10:46:27;101866.44;;;18.06;81.54
78613;BME280;67933;51.060;3.638;2023-05-07T10:51:34;101873.91;;;18.26;77.64
78613;BME280;67933;51.060;3.638;2023-05-07T10:56:36;101886.19;;;18.18;79.53
78613;BME280;67933;51.060;3.638;2023-05-07T11:04:28;101879.81;;;17.82;81.01
78613;BME280;67933;51.060;3.638;2023-05-07T11:15:09;101867.88;;;17.36;81.36
78613;BME280;67933;51.060;3.638;2023-05-07T11:17:52;101875.84;;;17.24;82.19
78613;BME280;67933;51.060;3.638;2023-05-07T11:20:18;101880.00;;;17.28;81.86
78613;BME280;67933;51.060;3.638;2023-05-07T11:22:43;101885.59;;;17.38;81.09
78613;BME280;67933;51.060;3.638;2023-05-07T11:25:09;101887.22;;;17.53;80.87
78613;BME280;67933;51.060;3.638;2023-05-07T11:27:35;101886.50;;;17.64;81.29
78613;BME280;67933;51.060;3.638;2023-05-07T11:30:01;101886.06;;;17.70;81.34
78613;BME280;67933;51.060;3.638;2023-05-07T11:32:28;101887.44;;;17.76;81.46
78613;BME280;67933;51.060;3.638;2023-05-07T11:34:55;101889.91;;;17.66;80.16
78613;BME280;67933;51.060;3.638;2023-05-07T11:37:22;101886.88;;;17.58;80.07
78613;BME280;67933;51.060;3.638;2023-05-07T11:39:48;101883.03;;;17.75;80.52
78613;BME280;67933;51.060;3.638;2023-05-07T11:44:55;101886.91;;;17.96;80.34
78613;BME280;67933;51.060;3.638;2023-05-07T11:47:21;101892.47;;;17.93;79.00
78613;BME280;67933;51.060;3.638;2023-05-07T11:49:52;101890.00;;;18.02;78.46
78613;BME280;67933;51.060;3.638;2023-05-07T11:52:18;101890.31;;;17.98;78.76
78613;BME280;67933;51.060;3.638;2023-05-07T11:54:57;101884.06;;;18.10;77.54
78613;BME280;67933;51.060;3.638;2023-05-07T11:57:24;101886.69;;;18.23;76.65
78613;BME280;67933;51.060;3.638;2023-05-07T12:00:00;101885.81;;;18.35;75.22
78613;BME280;67933;51.060;3.638;2023-05-07T12:02:27;101892.00;;;18.48;76.60
78613;BME280;67933;51.060;3.638;2023-05-07T12:04:54;101889.22;;;18.73;74.69
78613;BME280;67933;51.060;3.638;2023-05-07T12:07:20;101890.06;;;18.74;75.04
78613;BME280;67933;51.060;3.638;2023-05-07T12:09:45;101886.59;;;19.19;73.76
78613;BME280;67933;51.060;3.638;2023-05-07T12:12:12;101888.03;;;19.58;72.72
78613;BME280;67933;51.060;3.638;2023-05-07T12:14:41;101881.78;;;19.80;70.67
78613;BME280;67933;51.060;3.638;2023-05-07T12:17:07;101883.75;;;19.89;69.91
78613;BME280;67933;51.060;3.638;2023-05-07T12:19:38;101880.63;;;20.39;69.59
78613;BME280;67933;51.060;3.638;2023-05-07T12:22:04;101882.25;;;20.73;68.74
78613;BME280;67933;51.060;3.638;2023-05-07T12:24:43;101882.94;;;20.86;66.28
78613;BME280;67933;51.060;3.638;2023-05-07T12:27:09;101891.66;;;20.79;67.57
78613;BME280;67933;51.060;3.638;2023-05-07T12:29:34;101889.59;;;20.82;67.54
78613;BME280;67933;51.060;3.638;2023-05-07T12:32:00;101892.31;;;20.71;66.40
78613;BME280;67933;51.060;3.638;2023-05-07T12:34:25;101881.81;;;20.57;66.64
78613;BME280;67933;51.060;3.638;2023-05-07T12:36:50;101886.44;;;20.66;67.61
78613;BME280;67933;51.060;3.638;2023-05-07T12:39:17;101891.97;;;20.96;65.20
78613;BME280;67933;51.060;3.638;2023-05-07T12:41:56;101886.50;;;21.07;67.07
78613;BME280;67933;51.060;3.638;2023-05-07T12:44:24;101893.03;;;21.05;67.71
78613;BME280;67933;51.060;3.638;2023-05-07T12:46:51;101896.84;;;21.02;66.74
78613;BME280;67933;51.060;3.638;2023-05-07T12:49:16;101891.34;;;20.61;64.42
78613;BME280;67933;51.060;3.638;2023-05-07T12:51:43;101896.16;;;20.57;66.39
78613;BME280;67933;51.060;3.638;2023-05-07T12:54:09;101892.25;;;20.50;68.56
78613;BME280;67933;51.060;3.638;2023-05-07T12:56:37;101888.19;;;20.56;65.51
78613;BME280;67933;51.060;3.638;2023-05-07T12:59:03;101885.25;;;20.59;65.50
78613;BME280;67933;51.060;3.638;2023-05-07T13:01:29;101880.50;;;20.40;65.75
78613;BME280;67933;51.060;3.638;2023-05-07T13:04:02;101889.16;;;20.55;65.80
78613;BME280;67933;51.060;3.638;2023-05-07T13:06:29;101900.94;;;20.54;65.95
78613;BME280;67933;51.060;3.638;2023-05-07T13:08:55;101892.84;;;20.54;64.92
78613;BME280;67933;51.060;3.638;2023-05-07T13:11:21;101898.06;;;20.34;65.96
78613;BME280;67933;51.060;3.638;2023-05-07T13:13:46;101899.25;;;20.30;68.20